Thunder radar more information blitzortung!


Radar de pluja more information rain snow radar


Visita la nostra xarxa de llocs de meteo:

Template documentation
and downloads

And another site



No particular awareness of the weather is required.    There are no Weather-warnings

Pagina Historial Weather Underground text

Diari Resum May 12, 2016 Unitats:  Mètric    Imperial   Tant
« Previous Dia
SegĂźent Dia »
Diari Setmana Mensual Anual Personalitzada
  Maxima: Minima: Media:
Temperatura: 22.6 °C 8.7 °C 16.9 °C
Punt de rosada: 12.3 °C 5.8 °C 8.4 °C
Humitat: 84 % 43 % 59 %
Wind Speed: 23.7 km/h 0.0 km/h 7.8 km/h
RĂ fegues de vent: 23.7 km/h - -
Vent:- - SW
Pression baro: 1007.0 hPa 1003.9 hPa -
Precipitacions: 0.0 mm    
Historical Graphs
 
 
Dades de taula per May 12, 2016
Temps Temperatura Punt de rosada Pression baro Vent Wind Speed RĂ fegues de vent Humitat Rainfall Rate (Hourly)
00:00 10.0 °C 6.7 °C 1006.0 hPa NNE 1.6 km/h 3.2 km/h 80 % 0.0 mm
00:04 13.4 °C 8.8 °C 1006.0 hPa WSW 3.9 km/h 3.9 km/h 74 % 0.0 mm
00:09 13.3 °C 8.8 °C 1006.0 hPa WSW 3.7 km/h 3.7 km/h 74 % 0.0 mm
00:10 9.9 °C 6.6 °C 1006.0 hPa NE 1.6 km/h 3.2 km/h 80 % 0.0 mm
00:20 9.8 °C 6.5 °C 1006.0 hPa Calm   3.2 km/h 80 % 0.0 mm
00:30 9.6 °C 6.3 °C 1006.0 hPa NNE 1.6 km/h 3.2 km/h 80 % 0.0 mm
00:40 9.6 °C 6.3 °C 1006.0 hPa North 1.6 km/h 3.2 km/h 80 % 0.0 mm
00:50 9.5 °C 6.2 °C 1006.0 hPa North 1.6 km/h 3.2 km/h 80 % 0.0 mm
01:00 9.2 °C 5.9 °C 1006.0 hPa Calm   3.2 km/h 80 % 0.0 mm
01:20 9.1 °C 6.0 °C 1006.0 hPa Calm   3.2 km/h 81 % 0.0 mm
01:30 8.9 °C 5.8 °C 1006.0 hPa WSW 1.6 km/h 3.2 km/h 81 % 0.0 mm
01:40 8.9 °C 5.8 °C 1006.0 hPa SW 1.6 km/h 3.2 km/h 81 % 0.0 mm
01:50 8.9 °C 6.0 °C 1006.0 hPa Calm     82 % 0.0 mm
02:00 8.8 °C 5.9 °C 1006.0 hPa SW 3.2 km/h 4.8 km/h 82 % 0.0 mm
02:10 8.7 °C 6.0 °C 1006.0 hPa SW 1.6 km/h 3.2 km/h 83 % 0.0 mm
02:20 8.9 °C 6.2 °C 1006.0 hPa SW 1.6 km/h 3.2 km/h 83 % 0.0 mm
02:30 9.2 °C 6.4 °C 1006.0 hPa SW 1.6 km/h 3.2 km/h 83 % 0.0 mm
02:40 9.4 °C 6.7 °C 1005.0 hPa SW 3.2 km/h 3.2 km/h 83 % 0.0 mm
02:50 9.6 °C 7.0 °C 1005.0 hPa Calm   4.8 km/h 84 % 0.0 mm
03:00 10.0 °C 7.4 °C 1006.0 hPa SW 1.6 km/h 1.6 km/h 84 % 0.0 mm
03:10 10.7 °C 8.1 °C 1006.0 hPa SW 1.6 km/h 3.2 km/h 84 % 0.0 mm
03:20 11.1 °C 8.3 °C 1006.0 hPa Calm   3.2 km/h 83 % 0.0 mm
03:30 11.7 °C 8.7 °C 1006.0 hPa Calm   1.6 km/h 82 % 0.0 mm
03:40 11.8 °C 8.7 °C 1006.0 hPa SSW 1.6 km/h 4.8 km/h 81 % 0.0 mm
03:50 12.7 °C 9.2 °C 1006.0 hPa South 1.6 km/h 3.2 km/h 79 % 0.0 mm
04:00 13.5 °C 9.7 °C 1006.0 hPa ESE 1.6 km/h 3.2 km/h 78 % 0.0 mm
04:10 13.6 °C 9.8 °C 1006.0 hPa Calm   3.2 km/h 78 % 0.0 mm
04:20 14.3 °C 10.3 °C 1006.0 hPa South 1.6 km/h 1.6 km/h 77 % 0.0 mm
04:40 14.7 °C 10.5 °C 1006.0 hPa SSW 3.2 km/h 6.4 km/h 76 % 0.0 mm
05:00 15.6 °C 10.8 °C 1006.0 hPa ESE 1.6 km/h 3.2 km/h 73 % 0.0 mm
05:20 16.2 °C 10.7 °C 1006.0 hPa NE 1.6 km/h 4.8 km/h 70 % 0.0 mm
05:30 17.0 °C 11.1 °C 1006.0 hPa ENE 1.6 km/h 4.8 km/h 68 % 0.0 mm
05:40 17.5 °C 11.5 °C 1006.0 hPa East 4.8 km/h 6.4 km/h 68 % 0.0 mm
05:50 17.9 °C 11.7 °C 1006.0 hPa East 4.8 km/h 6.4 km/h 67 % 0.0 mm
06:00 18.2 °C 11.7 °C 1006.0 hPa ESE 4.8 km/h 6.4 km/h 66 % 0.0 mm
06:10 19.0 °C 12.3 °C 1006.0 hPa East 4.8 km/h 6.4 km/h 65 % 0.0 mm
11:19 20.2 °C 11.7 °C 1006.0 hPa SW 5.6 km/h 5.6 km/h 58 % 0.0 mm
11:24 20.6 °C 11.2 °C 1005.0 hPa WSW 7.4 km/h 7.4 km/h 55 % 0.0 mm
11:34 19.5 °C 9.7 °C 1005.0 hPa WSW 9.3 km/h 9.3 km/h 53 % 0.0 mm
11:39 19.7 °C 9.8 °C 1006.0 hPa WSW 5.6 km/h 5.6 km/h 53 % 0.0 mm
11:44 20.0 °C 9.6 °C 1006.0 hPa SSW 16.7 km/h 16.7 km/h 51 % 0.0 mm
11:49 20.4 °C 9.6 °C 1006.0 hPa West 9.3 km/h 9.3 km/h 50 % 0.0 mm
11:54 20.6 °C 9.8 °C 1006.0 hPa West 13.0 km/h 13.0 km/h 50 % 0.0 mm
11:59 20.3 °C 9.2 °C 1006.0 hPa WSW 13.0 km/h 13.0 km/h 49 % 0.0 mm
12:04 20.5 °C 9.1 °C 1006.0 hPa WNW 11.1 km/h 11.1 km/h 48 % 0.0 mm
12:09 20.6 °C 9.2 °C 1006.0 hPa WSW 14.8 km/h 14.8 km/h 48 % 0.0 mm
12:14 20.7 °C 9.6 °C 1006.0 hPa West 10.0 km/h 10.0 km/h 49 % 0.0 mm
12:19 20.7 °C 9.3 °C 1006.0 hPa WNW 7.4 km/h 7.4 km/h 48 % 0.0 mm
12:24 21.0 °C 9.3 °C 1006.0 hPa WSW 9.3 km/h 9.3 km/h 47 % 0.0 mm
12:29 21.1 °C 9.0 °C 1006.0 hPa WSW 22.2 km/h 22.2 km/h 46 % 0.0 mm
12:39 20.9 °C 8.8 °C 1005.0 hPa SSE 18.5 km/h 18.5 km/h 46 % 0.0 mm
12:49 21.0 °C 8.6 °C 1005.0 hPa NNE 11.1 km/h 11.1 km/h 45 % 0.0 mm
12:54 21.7 °C 9.6 °C 1006.0 hPa WSW 13.0 km/h 13.0 km/h 46 % 0.0 mm
12:59 21.4 °C 8.9 °C 1006.0 hPa South 9.3 km/h 9.3 km/h 45 % 0.0 mm
13:04 21.8 °C 9.3 °C 1006.0 hPa West 14.8 km/h 14.8 km/h 45 % 0.0 mm
13:09 21.7 °C 9.2 °C 1006.0 hPa WSW 12.6 km/h 12.6 km/h 45 % 0.0 mm
13:14 21.6 °C 9.2 °C 1006.0 hPa WSW 5.8 km/h 5.8 km/h 45 % 0.0 mm
13:19 21.1 °C 8.4 °C 1006.0 hPa SW 9.3 km/h 9.3 km/h 44 % 0.0 mm
13:24 21.4 °C 8.9 °C 1005.0 hPa West 5.6 km/h 5.6 km/h 45 % 0.0 mm
13:29 21.3 °C 8.6 °C 1005.0 hPa WSW 11.1 km/h 11.1 km/h 44 % 0.0 mm
13:34 20.9 °C 8.5 °C 1005.0 hPa West 9.3 km/h 9.3 km/h 45 % 0.0 mm
13:39 20.8 °C 8.4 °C 1006.0 hPa West 7.4 km/h 7.4 km/h 45 % 0.0 mm
13:44 20.9 °C 8.8 °C 1006.0 hPa SSW 12.2 km/h 12.2 km/h 46 % 0.0 mm
13:49 20.8 °C 8.4 °C 1006.0 hPa NW 11.9 km/h 11.9 km/h 45 % 0.0 mm
13:54 20.7 °C 8.7 °C 1006.0 hPa NW 7.4 km/h 7.4 km/h 46 % 0.0 mm
14:04 20.2 °C 8.2 °C 1006.0 hPa North 9.3 km/h 9.3 km/h 46 % 0.0 mm
14:09 20.2 °C 8.2 °C 1006.0 hPa WSW 9.3 km/h 9.3 km/h 46 % 0.0 mm
14:14 20.2 °C 8.2 °C 1006.0 hPa WSW 9.3 km/h 9.3 km/h 46 % 0.0 mm
14:19 20.1 °C 7.8 °C 1006.0 hPa WSW 13.0 km/h 13.0 km/h 45 % 0.0 mm
14:24 20.0 °C 8.0 °C 1006.0 hPa WSW 6.1 km/h 6.4 km/h 46 % 0.0 mm
14:29 19.9 °C 7.9 °C 1006.0 hPa WSW 7.4 km/h 7.4 km/h 46 % 0.0 mm
14:34 20.0 °C 8.0 °C 1006.0 hPa West 7.4 km/h 7.4 km/h 46 % 0.0 mm
14:39 20.1 °C 8.4 °C 1006.0 hPa SW 5.6 km/h 5.6 km/h 47 % 0.0 mm
14:44 20.2 °C 8.5 °C 1006.0 hPa SSW 9.3 km/h 9.3 km/h 47 % 0.0 mm
14:54 20.0 °C 8.0 °C 1006.0 hPa West 9.3 km/h 9.3 km/h 46 % 0.0 mm
14:59 20.2 °C 8.5 °C 1006.0 hPa NNE 7.9 km/h 7.9 km/h 47 % 0.0 mm
15:04 20.2 °C 8.5 °C 1006.0 hPa WSW 3.9 km/h 3.9 km/h 47 % 0.0 mm
15:09 20.3 °C 8.6 °C 1006.0 hPa NW 7.4 km/h 7.4 km/h 47 % 0.0 mm
15:14 20.3 °C 8.6 °C 1006.0 hPa ENE 11.1 km/h 11.1 km/h 47 % 0.0 mm
15:24 20.4 °C 8.7 °C 1006.0 hPa NNW 5.6 km/h 5.6 km/h 47 % 0.0 mm
15:29 20.7 °C 9.0 °C 1006.0 hPa WSW 5.8 km/h 6.4 km/h 47 % 0.0 mm
15:34 21.5 °C 9.7 °C 1006.0 hPa West 7.4 km/h 7.4 km/h 47 % 0.0 mm
15:39 21.4 °C 9.3 °C 1005.0 hPa ENE 11.1 km/h 11.1 km/h 46 % 0.0 mm
15:44 21.1 °C 8.7 °C 1005.0 hPa West 13.0 km/h 13.0 km/h 45 % 0.0 mm
15:49 20.9 °C 8.8 °C 1005.0 hPa West 9.3 km/h 9.3 km/h 46 % 0.0 mm
15:54 20.7 °C 8.7 °C 1006.0 hPa WSW 13.0 km/h 13.0 km/h 46 % 0.0 mm
15:59 20.9 °C 9.2 °C 1006.0 hPa WSW 11.1 km/h 11.1 km/h 47 % 0.0 mm
16:04 20.4 °C 8.7 °C 1006.0 hPa WSW 10.0 km/h 10.0 km/h 47 % 0.0 mm
16:09 20.1 °C 8.7 °C 1006.0 hPa West 13.0 km/h 13.0 km/h 48 % 0.0 mm
16:14 20.0 °C 8.7 °C 1006.0 hPa SW 11.1 km/h 11.1 km/h 48 % 0.0 mm
16:19 20.1 °C 9.1 °C 1006.0 hPa SSW 7.4 km/h 7.4 km/h 49 % 0.0 mm
16:24 19.9 °C 9.2 °C 1006.0 hPa SW 11.1 km/h 11.1 km/h 50 % 0.0 mm
16:29 19.6 °C 9.2 °C 1006.0 hPa WSW 5.6 km/h 5.6 km/h 51 % 0.0 mm
16:34 20.4 °C 9.6 °C 1006.0 hPa SSW 7.4 km/h 7.4 km/h 50 % 0.0 mm
16:39 21.1 °C 9.9 °C 1005.0 hPa WSW 5.6 km/h   49 % 0.0 mm
16:44 21.4 °C 10.2 °C 1005.0 hPa WSW 5.6 km/h 5.6 km/h 49 % 0.0 mm
16:49 21.9 °C 10.1 °C 1005.0 hPa SSW 9.3 km/h 9.3 km/h 47 % 0.0 mm
16:54 21.9 °C 9.4 °C 1005.0 hPa WSW 13.0 km/h 13.0 km/h 45 % 0.0 mm
16:59 22.0 °C 9.5 °C 1005.0 hPa WNW 9.3 km/h 9.3 km/h 45 % 0.0 mm
17:04 22.6 °C 10.1 °C 1005.0 hPa SSW 13.7 km/h 13.7 km/h 45 % 0.0 mm
17:09 21.8 °C 8.7 °C 1005.0 hPa SW 11.1 km/h 11.1 km/h 43 % 0.0 mm
17:14 21.1 °C 8.0 °C 1005.0 hPa SW 16.7 km/h 16.7 km/h 43 % 0.0 mm
17:19 20.9 °C 8.5 °C 1005.0 hPa SW 9.3 km/h 9.3 km/h 45 % 0.0 mm
17:24 20.7 °C 8.7 °C 1003.9 hPa West 9.3 km/h 9.3 km/h 46 % 0.0 mm
17:29 20.4 °C 8.7 °C 1003.9 hPa WSW 7.4 km/h 7.4 km/h 47 % 0.0 mm
17:34 20.1 °C 8.4 °C 1003.9 hPa WSW 3.7 km/h 3.7 km/h 47 % 0.0 mm
17:39 20.0 °C 8.7 °C 1005.0 hPa SW 3.7 km/h 3.7 km/h 48 % 0.0 mm
17:44 20.3 °C 8.9 °C 1005.0 hPa West 3.7 km/h 3.7 km/h 48 % 0.0 mm
17:49 20.3 °C 8.9 °C 1005.0 hPa WSW 7.4 km/h 7.4 km/h 48 % 0.0 mm
17:54 20.4 °C 8.4 °C 1003.9 hPa WSW 9.7 km/h 9.7 km/h 46 % 0.0 mm
18:04 20.2 °C 8.2 °C 1003.9 hPa SW 16.7 km/h 16.7 km/h 46 % 0.0 mm
18:09 20.0 °C 7.7 °C 1003.9 hPa SW 18.5 km/h 18.5 km/h 45 % 0.0 mm
18:14 19.8 °C 7.8 °C 1003.9 hPa WSW 20.4 km/h 20.4 km/h 46 % 0.0 mm
18:19 19.6 °C 7.7 °C 1003.9 hPa West 17.2 km/h 17.2 km/h 46 % 0.0 mm
18:24 19.2 °C 7.3 °C 1005.0 hPa SW 13.0 km/h 13.0 km/h 46 % 0.0 mm
18:29 19.0 °C 7.4 °C 1005.0 hPa SW 14.8 km/h 14.8 km/h 47 % 0.0 mm
18:34 18.9 °C 7.9 °C 1005.0 hPa West 14.8 km/h 14.8 km/h 49 % 0.0 mm
18:39 18.9 °C 7.9 °C 1005.0 hPa SW 23.7 km/h 23.7 km/h 49 % 0.0 mm
18:44 19.1 °C 8.1 °C 1005.0 hPa SW 11.1 km/h 11.1 km/h 49 % 0.0 mm
18:49 19.3 °C 8.3 °C 1005.0 hPa South 11.1 km/h 11.1 km/h 49 % 0.0 mm
18:55 19.3 °C 8.6 °C 1005.0 hPa SW 20.4 km/h 20.4 km/h 50 % 0.0 mm
19:00 19.2 °C 9.1 °C 1005.0 hPa WSW 17.5 km/h 17.5 km/h 52 % 0.0 mm
19:05 18.9 °C 9.1 °C 1005.0 hPa SSW 20.4 km/h 20.4 km/h 53 % 0.0 mm
19:10 18.6 °C 8.8 °C 1005.0 hPa South 20.4 km/h 20.4 km/h 53 % 0.0 mm
19:15 18.4 °C 9.2 °C 1005.0 hPa SSW 20.9 km/h 20.9 km/h 55 % 0.0 mm
19:20 18.1 °C 9.4 °C 1005.0 hPa SW 16.7 km/h 16.7 km/h 57 % 0.0 mm
19:25 18.0 °C 9.1 °C 1006.0 hPa WSW 13.0 km/h 13.0 km/h 56 % 0.0 mm
19:30 17.9 °C 9.3 °C 1006.0 hPa WSW 16.7 km/h 16.7 km/h 57 % 0.0 mm
19:35 17.7 °C 9.3 °C 1006.0 hPa South 10.3 km/h 10.3 km/h 58 % 0.0 mm
19:40 17.6 °C 9.0 °C 1006.0 hPa WSW 16.7 km/h 16.7 km/h 57 % 0.0 mm
19:45 17.5 °C 8.6 °C 1006.0 hPa SW 16.7 km/h 16.7 km/h 56 % 0.0 mm
19:50 17.4 °C 8.3 °C 1006.0 hPa SW 17.2 km/h 17.2 km/h 55 % 0.0 mm
19:55 17.3 °C 8.2 °C 1006.0 hPa WSW 20.4 km/h 20.4 km/h 55 % 0.0 mm
20:00 17.2 °C 8.1 °C 1006.0 hPa SW 18.5 km/h 18.5 km/h 55 % 0.0 mm
20:05 17.1 °C 7.7 °C 1006.0 hPa WSW 9.3 km/h 9.3 km/h 54 % 0.0 mm
20:10 16.9 °C 7.8 °C 1005.0 hPa SSW 13.0 km/h 13.0 km/h 55 % 0.0 mm
20:15 16.8 °C 7.7 °C 1005.0 hPa WSW 11.1 km/h 11.1 km/h 55 % 0.0 mm
20:20 16.7 °C 7.9 °C 1005.0 hPa WSW 18.5 km/h 18.5 km/h 56 % 0.0 mm
20:25 16.5 °C 7.7 °C 1006.0 hPa SSW 10.3 km/h 10.3 km/h 56 % 0.0 mm
20:30 16.4 °C 7.8 °C 1006.0 hPa SW 13.0 km/h 13.0 km/h 57 % 0.0 mm
20:35 16.4 °C 7.8 °C 1006.0 hPa SSW 9.3 km/h 9.3 km/h 57 % 0.0 mm
20:40 16.2 °C 7.9 °C 1005.0 hPa WSW 9.3 km/h 9.3 km/h 58 % 0.0 mm
20:45 16.1 °C 7.8 °C 1005.0 hPa SW 7.4 km/h 7.4 km/h 58 % 0.0 mm
20:50 16.0 °C 8.0 °C 1005.0 hPa SW 11.1 km/h 11.1 km/h 59 % 0.0 mm
20:55 15.8 °C 8.1 °C 1006.0 hPa SSW 7.4 km/h 7.4 km/h 60 % 0.0 mm
21:00 15.8 °C 8.1 °C 1006.0 hPa SW 11.1 km/h 11.1 km/h 60 % 0.0 mm
21:05 15.8 °C 8.1 °C 1006.0 hPa WSW 7.4 km/h 7.4 km/h 60 % 0.0 mm
21:10 15.5 °C 8.2 °C 1005.0 hPa SW 5.6 km/h 5.6 km/h 62 % 0.0 mm
21:15 15.5 °C 8.2 °C 1005.0 hPa SW 6.9 km/h 6.9 km/h 62 % 0.0 mm
21:20 15.4 °C 8.2 °C 1005.0 hPa West 5.0 km/h 5.0 km/h 62 % 0.0 mm
21:25 15.3 °C 8.1 °C 1005.0 hPa WSW 4.7 km/h 4.7 km/h 62 % 0.0 mm
21:30 15.3 °C 8.1 °C 1005.0 hPa WSW 4.2 km/h 4.2 km/h 62 % 0.0 mm
21:40 15.0 °C 8.0 °C 1006.0 hPa SW 6.1 km/h 6.1 km/h 63 % 0.0 mm
21:45 14.8 °C 8.1 °C 1006.0 hPa WSW 5.6 km/h 5.6 km/h 64 % 0.0 mm
21:50 14.7 °C 7.9 °C 1006.0 hPa SW 5.6 km/h 5.6 km/h 64 % 0.0 mm
21:55 14.6 °C 7.9 °C 1006.0 hPa WSW 4.2 km/h 4.2 km/h 64 % 0.0 mm
22:00 14.6 °C 7.9 °C 1006.0 hPa WSW 3.7 km/h 3.7 km/h 64 % 0.0 mm
22:05 14.6 °C 8.1 °C 1006.0 hPa WSW 3.7 km/h 3.7 km/h 65 % 0.0 mm
22:10 14.6 °C 8.1 °C 1006.0 hPa WNW 1.9 km/h   65 % 0.0 mm
22:15 14.5 °C 8.0 °C 1006.0 hPa NE 3.7 km/h 3.7 km/h 65 % 0.0 mm
22:20 14.5 °C 8.0 °C 1006.0 hPa ENE 3.7 km/h 3.7 km/h 65 % 0.0 mm
22:25 14.5 °C 8.2 °C 1007.0 hPa Calm     66 % 0.0 mm
22:30 10.8 °C 6.3 °C 1006.0 hPa SSW 1.6 km/h 3.2 km/h 74 % 0.0 mm
22:35 14.4 °C 8.1 °C 1007.0 hPa Calm     66 % 0.0 mm
22:40 14.3 °C 7.8 °C 1007.0 hPa WNW 2.6 km/h   65 % 0.0 mm
22:46 14.2 °C 7.7 °C 1007.0 hPa WSW 3.7 km/h 3.7 km/h 65 % 0.0 mm
22:50 11.1 °C 6.6 °C 1007.0 hPa West 3.2 km/h 3.2 km/h 74 % 0.0 mm
22:51 14.2 °C 7.9 °C 1007.0 hPa WSW 3.7 km/h 3.7 km/h 66 % 0.0 mm
22:56 14.1 °C 7.8 °C 1007.0 hPa WSW 3.7 km/h 3.7 km/h 66 % 0.0 mm
23:00 11.1 °C 6.8 °C 1007.0 hPa WSW 3.2 km/h 3.2 km/h 75 % 0.0 mm
23:01 14.0 °C 7.7 °C 1007.0 hPa WSW 3.7 km/h 3.7 km/h 66 % 0.0 mm
23:06 13.9 °C 7.7 °C 1007.0 hPa WSW 2.3 km/h 2.3 km/h 66 % 0.0 mm
23:10 10.9 °C 6.8 °C 1007.0 hPa Calm   3.2 km/h 76 % 0.0 mm
23:11 13.8 °C 7.8 °C 1007.0 hPa WSW 1.9 km/h 1.9 km/h 67 % 0.0 mm
23:16 13.7 °C 7.4 °C 1007.0 hPa WSW 2.3 km/h 3.5 km/h 66 % 0.0 mm
23:20 10.9 °C 6.7 °C 1007.0 hPa WSW 1.6 km/h 3.2 km/h 75 % 0.0 mm
23:21 13.7 °C 7.7 °C 1007.0 hPa SW 3.9 km/h 3.9 km/h 67 % 0.0 mm
23:26 13.6 °C 7.8 °C 1007.0 hPa SSW 5.6 km/h 5.6 km/h 68 % 0.0 mm
23:30 11.1 °C 7.0 °C 1007.0 hPa NW 3.2 km/h 3.2 km/h 76 % 0.0 mm
23:31 13.4 °C 7.6 °C 1007.0 hPa SW 3.7 km/h 3.7 km/h 68 % 0.0 mm
23:36 13.3 °C 7.7 °C 1007.0 hPa West 3.9 km/h 3.9 km/h 69 % 0.0 mm
23:40 10.9 °C 6.8 °C 1007.0 hPa NNE 1.6 km/h 4.8 km/h 76 % 0.0 mm
23:46 13.1 °C 7.6 °C 1007.0 hPa WSW 3.7 km/h 3.7 km/h 69 % 0.0 mm
23:50 10.7 °C 6.7 °C 1007.0 hPa Calm   1.6 km/h 76 % 0.0 mm
23:51 13.1 °C 7.6 °C 1007.0 hPa SW 3.7 km/h 3.7 km/h 69 % 0.0 mm
23:56 13.1 °C 7.6 °C 1007.0 hPa SW 3.7 km/h 3.7 km/h 69 % 0.0 mm
Meteo Sesrovires
Elogis d' Weather Underground - 3.5 mb

Guio original per  Jim McMurry - jmcmurry@mwt.net Adaptat per a la plantilla per  Wim van der Kuil - Leuven-Template.eu

Trobareu la nostra informacio del temps tambe a:

Weather Underground

AWEKAS